BLN weather

Benalla Airport
Victoria, Australia

Public forecast

Using degrees Celsius for public forecast. Weather courtesy of forecast.io.

Closest aviation weather report (METAR) to Benalla Airport

Closest report is Wangaratta Airport, 16.6 nm (30.8 km) ENE. Retrieved 2020/03/30 22:00 UTC (1 hour ago):

YWGT 302200Z AUTO 11002KT 9999 // NCD 11/11 Q1017

Closest aviation forecast (TAF) to Benalla Airport

Forecast is more than 12 hours old.

Closest forecast is Wangaratta Airport, 16.6 nm (30.8 km) ENE. Retrieved 2020-03-30 02:03 UTC (21 hours ago):

TAF YWGT 300059Z 3002/3014 29008KT 9999 SCT040 FM300700 24008KT CAVOK